sensor_id;sensor_type;location;lat;lon;timestamp;pressure;altitude;pressure_sealevel;temperature;humidity
45285;BME280;31026;43.780;25.948;2023-04-06T00:00:07;100614.84;;;17.04;67.87
45285;BME280;31026;43.780;25.948;2023-04-06T00:02:36;100603.78;;;17.08;68.56
45285;BME280;31026;43.780;25.948;2023-04-06T00:05:05;100592.78;;;17.23;68.04
45285;BME280;31026;43.780;25.948;2023-04-06T00:07:35;100594.75;;;17.21;68.07
45285;BME280;31026;43.780;25.948;2023-04-06T00:10:04;100597.16;;;17.24;68.11
45285;BME280;31026;43.780;25.948;2023-04-06T00:12:36;100591.63;;;17.16;68.20
45285;BME280;31026;43.780;25.948;2023-04-06T00:15:05;100595.53;;;17.12;68.24
45285;BME280;31026;43.780;25.948;2023-04-06T00:17:33;100587.31;;;17.03;68.46
45285;BME280;31026;43.780;25.948;2023-04-06T00:20:02;100583.63;;;17.04;68.36
45285;BME280;31026;43.780;25.948;2023-04-06T00:22:32;100591.44;;;16.96;68.17
45285;BME280;31026;43.780;25.948;2023-04-06T00:25:00;100582.72;;;16.94;68.81
45285;BME280;31026;43.780;25.948;2023-04-06T00:27:29;100563.28;;;16.92;68.60
45285;BME280;31026;43.780;25.948;2023-04-06T00:30:00;100578.34;;;16.93;68.62
45285;BME280;31026;43.780;25.948;2023-04-06T00:32:28;100568.31;;;16.85;68.81
45285;BME280;31026;43.780;25.948;2023-04-06T00:34:58;100588.78;;;16.85;68.55
45285;BME280;31026;43.780;25.948;2023-04-06T00:37:26;100571.94;;;16.84;68.86
45285;BME280;31026;43.780;25.948;2023-04-06T00:39:55;100582.63;;;16.84;68.87
45285;BME280;31026;43.780;25.948;2023-04-06T00:42:23;100568.31;;;16.85;68.43
45285;BME280;31026;43.780;25.948;2023-04-06T00:44:53;100572.53;;;16.77;68.53
45285;BME280;31026;43.780;25.948;2023-04-06T00:47:24;100565.50;;;16.76;68.35
45285;BME280;31026;43.780;25.948;2023-04-06T00:49:53;100566.09;;;16.79;68.21
45285;BME280;31026;43.780;25.948;2023-04-06T00:52:23;100569.25;;;16.73;68.53
45285;BME280;31026;43.780;25.948;2023-04-06T00:54:51;100557.72;;;16.73;68.62
45285;BME280;31026;43.780;25.948;2023-04-06T00:57:20;100572.91;;;16.72;68.53
45285;BME280;31026;43.780;25.948;2023-04-06T00:59:48;100566.47;;;16.75;68.40
45285;BME280;31026;43.780;25.948;2023-04-06T01:02:16;100555.28;;;16.81;68.64
45285;BME280;31026;43.780;25.948;2023-04-06T01:04:47;100549.31;;;17.00;68.08
45285;BME280;31026;43.780;25.948;2023-04-06T01:07:16;100558.94;;;16.91;67.63
45285;BME280;31026;43.780;25.948;2023-04-06T01:09:45;100542.75;;;16.93;67.70
45285;BME280;31026;43.780;25.948;2023-04-06T01:12:14;100542.03;;;16.90;67.99
45285;BME280;31026;43.780;25.948;2023-04-06T01:14:42;100556.28;;;16.91;68.18
45285;BME280;31026;43.780;25.948;2023-04-06T01:17:10;100550.06;;;16.90;67.62
45285;BME280;31026;43.780;25.948;2023-04-06T01:19:39;100554.78;;;16.87;67.74
45285;BME280;31026;43.780;25.948;2023-04-06T01:25:01;100545.22;;;16.73;68.35
45285;BME280;31026;43.780;25.948;2023-04-06T01:27:30;100544.13;;;16.76;68.16
45285;BME280;31026;43.780;25.948;2023-04-06T01:29:58;100518.91;;;16.68;68.38
45285;BME280;31026;43.780;25.948;2023-04-06T01:32:27;100522.09;;;16.62;68.67
45285;BME280;31026;43.780;25.948;2023-04-06T01:34:55;100516.34;;;16.67;68.57
45285;BME280;31026;43.780;25.948;2023-04-06T01:37:24;100528.16;;;16.64;68.35
45285;BME280;31026;43.780;25.948;2023-04-06T01:39:55;100512.25;;;16.63;68.66
45285;BME280;31026;43.780;25.948;2023-04-06T01:42:26;100535.75;;;16.69;68.67
45285;BME280;31026;43.780;25.948;2023-04-06T01:44:56;100518.00;;;16.90;67.68
45285;BME280;31026;43.780;25.948;2023-04-06T01:47:25;100504.41;;;17.57;66.01
45285;BME280;31026;43.780;25.948;2023-04-06T01:49:54;100510.81;;;18.37;64.09
45285;BME280;31026;43.780;25.948;2023-04-06T01:52:22;100490.00;;;19.08;61.62
45285;BME280;31026;43.780;25.948;2023-04-06T01:54:54;100481.88;;;19.47;61.26
45285;BME280;31026;43.780;25.948;2023-04-06T01:57:23;100494.25;;;19.78;60.42
45285;BME280;31026;43.780;25.948;2023-04-06T01:59:54;100486.31;;;19.86;59.96
45285;BME280;31026;43.780;25.948;2023-04-06T02:02:23;100494.22;;;19.88;59.86
45285;BME280;31026;43.780;25.948;2023-04-06T02:04:53;100470.19;;;19.86;59.98
45285;BME280;31026;43.780;25.948;2023-04-06T02:07:22;100474.31;;;19.80;60.13
45285;BME280;31026;43.780;25.948;2023-04-06T02:09:53;100476.19;;;19.60;60.94
45285;BME280;31026;43.780;25.948;2023-04-06T02:12:22;100481.31;;;19.54;60.98
45285;BME280;31026;43.780;25.948;2023-04-06T02:14:54;100484.81;;;19.64;61.21
45285;BME280;31026;43.780;25.948;2023-04-06T02:20:11;100473.63;;;19.78;60.44
45285;BME280;31026;43.780;25.948;2023-04-06T02:22:39;100480.38;;;19.82;60.48
45285;BME280;31026;43.780;25.948;2023-04-06T02:25:08;100456.94;;;19.84;60.42
45285;BME280;31026;43.780;25.948;2023-04-06T02:27:37;100459.72;;;19.93;60.14
45285;BME280;31026;43.780;25.948;2023-04-06T02:30:08;100462.81;;;19.98;60.10
45285;BME280;31026;43.780;25.948;2023-04-06T02:32:37;100460.31;;;19.86;60.16
45285;BME280;31026;43.780;25.948;2023-04-06T02:35:07;100452.34;;;19.95;60.21
45285;BME280;31026;43.780;25.948;2023-04-06T02:37:35;100468.53;;;20.03;59.98
45285;BME280;31026;43.780;25.948;2023-04-06T02:40:04;100460.25;;;19.96;60.49
45285;BME280;31026;43.780;25.948;2023-04-06T02:42:32;100461.50;;;20.02;60.14
45285;BME280;31026;43.780;25.948;2023-04-06T02:45:01;100460.81;;;20.00;59.83
45285;BME280;31026;43.780;25.948;2023-04-06T02:47:32;100461.03;;;20.06;60.04
45285;BME280;31026;43.780;25.948;2023-04-06T02:50:00;100454.53;;;20.09;59.72
45285;BME280;31026;43.780;25.948;2023-04-06T02:52:29;100451.22;;;20.15;59.95
45285;BME280;31026;43.780;25.948;2023-04-06T02:54:57;100445.56;;;20.18;59.93
45285;BME280;31026;43.780;25.948;2023-04-06T02:57:26;100450.94;;;20.18;59.94
45285;BME280;31026;43.780;25.948;2023-04-06T02:59:55;100446.56;;;20.17;59.65
45285;BME280;31026;43.780;25.948;2023-04-06T03:02:24;100461.91;;;20.25;59.84
45285;BME280;31026;43.780;25.948;2023-04-06T03:04:55;100449.50;;;20.24;59.29
45285;BME280;31026;43.780;25.948;2023-04-06T03:07:23;100443.38;;;20.32;59.46
45285;BME280;31026;43.780;25.948;2023-04-06T03:09:51;100447.31;;;20.37;59.58
45285;BME280;31026;43.780;25.948;2023-04-06T03:12:20;100435.25;;;20.23;59.66
45285;BME280;31026;43.780;25.948;2023-04-06T03:14:48;100453.91;;;20.15;59.98
45285;BME280;31026;43.780;25.948;2023-04-06T03:17:17;100437.81;;;20.15;59.67
45285;BME280;31026;43.780;25.948;2023-04-06T03:19:46;100459.00;;;20.18;59.74
45285;BME280;31026;43.780;25.948;2023-04-06T03:22:19;100442.34;;;20.15;60.02
45285;BME280;31026;43.780;25.948;2023-04-06T03:24:47;100459.28;;;20.15;60.27
45285;BME280;31026;43.780;25.948;2023-04-06T03:27:16;100449.09;;;20.19;60.00
45285;BME280;31026;43.780;25.948;2023-04-06T03:29:44;100460.53;;;20.21;60.22
45285;BME280;31026;43.780;25.948;2023-04-06T03:32:12;100468.03;;;20.17;60.27
45285;BME280;31026;43.780;25.948;2023-04-06T03:34:41;100451.56;;;20.12;60.15
45285;BME280;31026;43.780;25.948;2023-04-06T03:37:10;100439.81;;;20.13;60.21
45285;BME280;31026;43.780;25.948;2023-04-06T03:39:41;100447.97;;;20.21;60.15
45285;BME280;31026;43.780;25.948;2023-04-06T03:42:09;100455.22;;;20.11;60.24
45285;BME280;31026;43.780;25.948;2023-04-06T03:44:39;100448.25;;;20.18;60.23
45285;BME280;31026;43.780;25.948;2023-04-06T03:47:07;100439.75;;;20.23;60.01
45285;BME280;31026;43.780;25.948;2023-04-06T03:49:35;100444.69;;;20.27;59.80
45285;BME280;31026;43.780;25.948;2023-04-06T03:52:04;100452.13;;;20.34;59.91
45285;BME280;31026;43.780;25.948;2023-04-06T03:54:32;100450.75;;;20.30;59.97
45285;BME280;31026;43.780;25.948;2023-04-06T03:57:04;100445.38;;;20.30;59.94
45285;BME280;31026;43.780;25.948;2023-04-06T03:59:32;100447.75;;;20.33;60.23
45285;BME280;31026;43.780;25.948;2023-04-06T04:02:01;100452.84;;;19.80;61.55
45285;BME280;31026;43.780;25.948;2023-04-06T04:04:31;100459.34;;;19.31;62.81
45285;BME280;31026;43.780;25.948;2023-04-06T04:07:00;100455.44;;;18.96;63.65
45285;BME280;31026;43.780;25.948;2023-04-06T04:09:30;100467.72;;;18.79;64.27
45285;BME280;31026;43.780;25.948;2023-04-06T04:11:59;100471.22;;;18.69;64.19
45285;BME280;31026;43.780;25.948;2023-04-06T04:14:30;100462.78;;;18.64;64.59
45285;BME280;31026;43.780;25.948;2023-04-06T04:16:58;100457.16;;;18.97;63.60
45285;BME280;31026;43.780;25.948;2023-04-06T04:19:27;100465.66;;;19.39;62.65
45285;BME280;31026;43.780;25.948;2023-04-06T04:21:56;100461.25;;;19.58;62.02
45285;BME280;31026;43.780;25.948;2023-04-06T04:24:24;100456.31;;;19.53;62.01
45285;BME280;31026;43.780;25.948;2023-04-06T04:26:53;100469.41;;;19.09;63.92
45285;BME280;31026;43.780;25.948;2023-04-06T04:29:21;100446.84;;;18.73;64.39
45285;BME280;31026;43.780;25.948;2023-04-06T04:31:52;100469.25;;;18.72;64.51
45285;BME280;31026;43.780;25.948;2023-04-06T04:34:21;100450.63;;;19.09;63.46
45285;BME280;31026;43.780;25.948;2023-04-06T04:36:50;100458.56;;;19.58;61.98
45285;BME280;31026;43.780;25.948;2023-04-06T04:39:18;100458.50;;;19.77;61.41
45285;BME280;31026;43.780;25.948;2023-04-06T04:41:47;100464.59;;;19.22;63.67
45285;BME280;31026;43.780;25.948;2023-04-06T04:44:15;100463.66;;;18.84;64.00
45285;BME280;31026;43.780;25.948;2023-04-06T04:46:43;100474.59;;;18.62;65.00
45285;BME280;31026;43.780;25.948;2023-04-06T04:49:14;100464.19;;;18.78;64.16
45285;BME280;31026;43.780;25.948;2023-04-06T04:51:43;100467.56;;;19.10;63.62
45285;BME280;31026;43.780;25.948;2023-04-06T04:54:12;100470.31;;;19.37;62.82
45285;BME280;31026;43.780;25.948;2023-04-06T04:56:40;100478.16;;;19.01;63.93
45285;BME280;31026;43.780;25.948;2023-04-06T04:59:09;100473.19;;;18.67;64.66
45285;BME280;31026;43.780;25.948;2023-04-06T05:01:37;100479.41;;;18.58;65.14
45285;BME280;31026;43.780;25.948;2023-04-06T05:04:05;100468.69;;;18.78;64.13
45285;BME280;31026;43.780;25.948;2023-04-06T05:06:36;100476.00;;;19.24;63.17
45285;BME280;31026;43.780;25.948;2023-04-06T05:09:05;100471.34;;;19.36;62.88
45285;BME280;31026;43.780;25.948;2023-04-06T05:11:33;100492.81;;;18.97;63.90
45285;BME280;31026;43.780;25.948;2023-04-06T05:14:01;100478.97;;;18.63;65.13
45285;BME280;31026;43.780;25.948;2023-04-06T05:16:31;100490.38;;;18.55;65.25
45285;BME280;31026;43.780;25.948;2023-04-06T05:19:00;100480.84;;;18.82;64.27
45285;BME280;31026;43.780;25.948;2023-04-06T05:21:28;100464.47;;;19.04;63.13
45285;BME280;31026;43.780;25.948;2023-04-06T05:23:59;100459.69;;;19.08;62.58
45285;BME280;31026;43.780;25.948;2023-04-06T05:26:28;100462.16;;;19.29;61.47
45285;BME280;31026;43.780;25.948;2023-04-06T05:28:56;100458.22;;;19.23;61.66
45285;BME280;31026;43.780;25.948;2023-04-06T05:31:24;100471.78;;;19.22;61.50
45285;BME280;31026;43.780;25.948;2023-04-06T05:33:53;100469.25;;;19.20;62.02
45285;BME280;31026;43.780;25.948;2023-04-06T05:36:22;100459.50;;;19.19;62.09
45285;BME280;31026;43.780;25.948;2023-04-06T05:38:51;100464.47;;;18.65;62.46
45285;BME280;31026;43.780;25.948;2023-04-06T05:41:23;100469.88;;;18.05;60.35
45285;BME280;31026;43.780;25.948;2023-04-06T05:43:52;100474.66;;;17.71;56.95
45285;BME280;31026;43.780;25.948;2023-04-06T05:46:21;100476.22;;;17.53;55.42
45285;BME280;31026;43.780;25.948;2023-04-06T05:48:50;100474.25;;;17.45;54.29
45285;BME280;31026;43.780;25.948;2023-04-06T05:51:18;100458.97;;;17.36;53.29
45285;BME280;31026;43.780;25.948;2023-04-06T05:53:46;100458.69;;;17.29;52.69
45285;BME280;31026;43.780;25.948;2023-04-06T05:56:15;100472.94;;;17.18;52.80
45285;BME280;31026;43.780;25.948;2023-04-06T05:58:46;100462.38;;;16.96;52.59
45285;BME280;31026;43.780;25.948;2023-04-06T06:01:14;100462.19;;;16.87;51.69
45285;BME280;31026;43.780;25.948;2023-04-06T06:03:43;100443.44;;;16.66;50.87
45285;BME280;31026;43.780;25.948;2023-04-06T06:06:11;100467.16;;;16.48;50.61
45285;BME280;31026;43.780;25.948;2023-04-06T06:08:40;100474.22;;;16.38;49.50
45285;BME280;31026;43.780;25.948;2023-04-06T06:11:08;100462.31;;;16.42;49.37
45285;BME280;31026;43.780;25.948;2023-04-06T06:13:36;100463.44;;;16.40;49.24
45285;BME280;31026;43.780;25.948;2023-04-06T06:16:07;100469.72;;;16.39;48.58
45285;BME280;31026;43.780;25.948;2023-04-06T06:18:36;100458.00;;;16.30;48.87
45285;BME280;31026;43.780;25.948;2023-04-06T06:21:04;100446.94;;;16.35;48.50
45285;BME280;31026;43.780;25.948;2023-04-06T06:23:34;100470.50;;;16.29;48.44
45285;BME280;31026;43.780;25.948;2023-04-06T06:26:02;100454.94;;;16.35;48.49
45285;BME280;31026;43.780;25.948;2023-04-06T06:28:31;100454.09;;;16.34;48.57
45285;BME280;31026;43.780;25.948;2023-04-06T06:30:59;100456.50;;;16.37;48.25
45285;BME280;31026;43.780;25.948;2023-04-06T06:33:30;100467.94;;;16.28;48.10
45285;BME280;31026;43.780;25.948;2023-04-06T06:35:59;100453.28;;;16.22;48.00
45285;BME280;31026;43.780;25.948;2023-04-06T06:38:27;100455.50;;;16.06;47.91
45285;BME280;31026;43.780;25.948;2023-04-06T06:40:55;100467.91;;;15.96;47.15
45285;BME280;31026;43.780;25.948;2023-04-06T06:43:24;100467.16;;;15.94;46.80
45285;BME280;31026;43.780;25.948;2023-04-06T06:45:52;100476.50;;;15.88;47.00
45285;BME280;31026;43.780;25.948;2023-04-06T06:48:21;100469.09;;;15.91;46.46
45285;BME280;31026;43.780;25.948;2023-04-06T06:50:52;100475.28;;;15.81;46.45
45285;BME280;31026;43.780;25.948;2023-04-06T06:53:20;100476.63;;;15.75;46.15
45285;BME280;31026;43.780;25.948;2023-04-06T06:55:48;100467.88;;;15.73;46.16
45285;BME280;31026;43.780;25.948;2023-04-06T06:58:17;100462.31;;;15.76;46.28
45285;BME280;31026;43.780;25.948;2023-04-06T07:00:46;100461.94;;;15.92;46.23
45285;BME280;31026;43.780;25.948;2023-04-06T07:03:14;100476.50;;;15.88;46.43
45285;BME280;31026;43.780;25.948;2023-04-06T07:05:46;100476.34;;;15.89;47.92
45285;BME280;31026;43.780;25.948;2023-04-06T07:08:21;100469.78;;;16.16;48.19
45285;BME280;31026;43.780;25.948;2023-04-06T07:10:49;100469.81;;;17.13;48.43
45285;BME280;31026;43.780;25.948;2023-04-06T07:13:18;100460.56;;;18.09;46.74
45285;BME280;31026;43.780;25.948;2023-04-06T07:15:48;100463.63;;;18.75;46.58
45285;BME280;31026;43.780;25.948;2023-04-06T07:18:17;100450.94;;;18.77;47.33
45285;BME280;31026;43.780;25.948;2023-04-06T07:20:47;100439.66;;;18.93;46.88
45285;BME280;31026;43.780;25.948;2023-04-06T07:23:16;100451.66;;;19.08;47.42
45285;BME280;31026;43.780;25.948;2023-04-06T07:25:47;100447.13;;;19.08;47.93
45285;BME280;31026;43.780;25.948;2023-04-06T07:28:17;100451.91;;;19.15;48.06
45285;BME280;31026;43.780;25.948;2023-04-06T07:30:46;100435.81;;;19.24;48.43
45285;BME280;31026;43.780;25.948;2023-04-06T07:33:14;100445.25;;;19.28;48.88
45285;BME280;31026;43.780;25.948;2023-04-06T07:35:42;100448.75;;;19.29;49.15
45285;BME280;31026;43.780;25.948;2023-04-06T07:38:11;100445.22;;;19.38;49.44
45285;BME280;31026;43.780;25.948;2023-04-06T07:40:39;100447.59;;;19.41;49.43
45285;BME280;31026;43.780;25.948;2023-04-06T07:43:10;100445.78;;;19.42;49.70
45285;BME280;31026;43.780;25.948;2023-04-06T07:45:39;100459.28;;;19.60;49.66
45285;BME280;31026;43.780;25.948;2023-04-06T07:48:07;100451.59;;;19.65;50.03
45285;BME280;31026;43.780;25.948;2023-04-06T07:50:36;100438.19;;;19.65;49.80
45285;BME280;31026;43.780;25.948;2023-04-06T07:53:05;100448.09;;;19.74;50.43
45285;BME280;31026;43.780;25.948;2023-04-06T07:55:34;100440.81;;;19.84;50.15
45285;BME280;31026;43.780;25.948;2023-04-06T07:58:02;100458.59;;;19.85;50.75
45285;BME280;31026;43.780;25.948;2023-04-06T08:00:33;100447.72;;;19.87;50.37
45285;BME280;31026;43.780;25.948;2023-04-06T08:03:02;100458.59;;;19.85;51.07
45285;BME280;31026;43.780;25.948;2023-04-06T08:05:31;100450.44;;;19.77;51.29
45285;BME280;31026;43.780;25.948;2023-04-06T08:07:59;100451.75;;;19.73;51.36
45285;BME280;31026;43.780;25.948;2023-04-06T08:10:28;100442.66;;;19.84;51.60
45285;BME280;31026;43.780;25.948;2023-04-06T08:12:57;100449.63;;;19.77;52.46
45285;BME280;31026;43.780;25.948;2023-04-06T08:15:25;100460.31;;;19.86;52.45
45285;BME280;31026;43.780;25.948;2023-04-06T08:17:56;100438.03;;;19.76;52.31
45285;BME280;31026;43.780;25.948;2023-04-06T08:20:25;100448.09;;;19.74;52.61
45285;BME280;31026;43.780;25.948;2023-04-06T08:22:53;100436.75;;;19.80;52.66
45285;BME280;31026;43.780;25.948;2023-04-06T08:25:22;100445.41;;;19.74;52.91
45285;BME280;31026;43.780;25.948;2023-04-06T08:27:50;100449.00;;;19.83;53.33
45285;BME280;31026;43.780;25.948;2023-04-06T08:30:18;100439.66;;;19.87;53.15
45285;BME280;31026;43.780;25.948;2023-04-06T08:32:47;100428.94;;;19.87;53.22
45285;BME280;31026;43.780;25.948;2023-04-06T08:35:18;100434.63;;;19.84;53.14
45285;BME280;31026;43.780;25.948;2023-04-06T08:37:46;100442.63;;;19.94;53.44
45285;BME280;31026;43.780;25.948;2023-04-06T08:40:15;100453.50;;;19.92;53.34
45285;BME280;31026;43.780;25.948;2023-04-06T08:42:44;100439.63;;;19.97;53.43
45285;BME280;31026;43.780;25.948;2023-04-06T08:45:17;100430.75;;;19.96;53.49
45285;BME280;31026;43.780;25.948;2023-04-06T08:47:46;100422.81;;;19.95;53.64
45285;BME280;31026;43.780;25.948;2023-04-06T08:50:17;100447.69;;;19.97;54.00
45285;BME280;31026;43.780;25.948;2023-04-06T08:52:47;100430.31;;;19.91;54.25
45285;BME280;31026;43.780;25.948;2023-04-06T08:55:15;100442.31;;;19.97;54.25
45285;BME280;31026;43.780;25.948;2023-04-06T08:57:44;100428.47;;;19.74;53.75
45285;BME280;31026;43.780;25.948;2023-04-06T09:00:14;100446.47;;;19.81;54.02
45285;BME280;31026;43.780;25.948;2023-04-06T09:02:43;100447.59;;;19.89;54.22
45285;BME280;31026;43.780;25.948;2023-04-06T09:05:13;100429.81;;;19.88;54.38
45285;BME280;31026;43.780;25.948;2023-04-06T09:07:44;100435.00;;;19.89;54.85
45285;BME280;31026;43.780;25.948;2023-04-06T09:10:13;100441.63;;;19.95;54.73
45285;BME280;31026;43.780;25.948;2023-04-06T09:12:43;100432.72;;;19.94;55.14
45285;BME280;31026;43.780;25.948;2023-04-06T09:15:17;100441.31;;;19.98;55.06
45285;BME280;31026;43.780;25.948;2023-04-06T09:17:46;100431.19;;;19.92;55.25
45285;BME280;31026;43.780;25.948;2023-04-06T09:20:14;100432.22;;;19.81;55.01
45285;BME280;31026;43.780;25.948;2023-04-06T09:22:45;100438.03;;;19.76;55.09
45285;BME280;31026;43.780;25.948;2023-04-06T09:25:18;100454.94;;;19.86;54.85
45285;BME280;31026;43.780;25.948;2023-04-06T09:27:46;100437.59;;;19.81;54.62
45285;BME280;31026;43.780;25.948;2023-04-06T09:30:15;100449.56;;;19.86;54.58
45285;BME280;31026;43.780;25.948;2023-04-06T09:32:44;100427.50;;;19.93;54.58
45285;BME280;31026;43.780;25.948;2023-04-06T09:35:13;100446.28;;;19.93;55.13
45285;BME280;31026;43.780;25.948;2023-04-06T09:37:45;100439.66;;;19.87;55.00
45285;BME280;31026;43.780;25.948;2023-04-06T09:40:14;100438.84;;;19.86;55.40
45285;BME280;31026;43.780;25.948;2023-04-06T09:42:45;100439.94;;;19.94;55.38
45285;BME280;31026;43.780;25.948;2023-04-06T09:45:13;100443.16;;;19.97;56.04
45285;BME280;31026;43.780;25.948;2023-04-06T09:47:42;100423.16;;;19.92;55.68
45285;BME280;31026;43.780;25.948;2023-04-06T09:50:11;100441.31;;;19.98;56.04
45285;BME280;31026;43.780;25.948;2023-04-06T09:52:42;100422.91;;;20.03;56.60
45285;BME280;31026;43.780;25.948;2023-04-06T09:55:19;100441.66;;;20.13;56.41
45285;BME280;31026;43.780;25.948;2023-04-06T09:57:50;100430.22;;;20.11;56.97
45285;BME280;31026;43.780;25.948;2023-04-06T10:00:20;100436.44;;;20.11;56.97
45285;BME280;31026;43.780;25.948;2023-04-06T10:02:51;100453.88;;;20.25;56.99
45285;BME280;31026;43.780;25.948;2023-04-06T10:05:22;100430.16;;;20.20;57.68
45285;BME280;31026;43.780;25.948;2023-04-06T10:07:55;100438.91;;;20.22;57.20
45285;BME280;31026;43.780;25.948;2023-04-06T10:10:28;100414.34;;;20.17;57.82
45285;BME280;31026;43.780;25.948;2023-04-06T10:12:56;100437.53;;;20.18;57.54
45285;BME280;31026;43.780;25.948;2023-04-06T10:15:25;100448.13;;;20.20;57.69
45285;BME280;31026;43.780;25.948;2023-04-06T10:17:55;100423.97;;;20.20;57.52
45285;BME280;31026;43.780;25.948;2023-04-06T10:20:25;100424.09;;;20.18;57.55
45285;BME280;31026;43.780;25.948;2023-04-06T10:22:57;100438.91;;;20.22;57.46
45285;BME280;31026;43.780;25.948;2023-04-06T10:25:30;100429.19;;;20.21;57.38
45285;BME280;31026;43.780;25.948;2023-04-06T10:27:59;100438.16;;;20.30;57.18
45285;BME280;31026;43.780;25.948;2023-04-06T10:30:28;100425.56;;;20.31;57.07
45285;BME280;31026;43.780;25.948;2023-04-06T10:32:56;100405.09;;;20.30;57.23
45285;BME280;31026;43.780;25.948;2023-04-06T10:35:24;100421.34;;;20.28;57.56
45285;BME280;31026;43.780;25.948;2023-04-06T10:38:04;100430.25;;;20.29;57.35
45285;BME280;31026;43.780;25.948;2023-04-06T10:40:35;100423.41;;;20.16;57.82
45285;BME280;31026;43.780;25.948;2023-04-06T10:43:07;100410.44;;;20.12;57.61
45285;BME280;31026;43.780;25.948;2023-04-06T10:45:37;100418.94;;;20.07;57.57
45285;BME280;31026;43.780;25.948;2023-04-06T10:48:14;100411.28;;;20.12;57.45
45285;BME280;31026;43.780;25.948;2023-04-06T10:50:43;100409.75;;;20.10;57.68
45285;BME280;31026;43.780;25.948;2023-04-06T10:53:19;100393.47;;;20.11;57.32
45285;BME280;31026;43.780;25.948;2023-04-06T10:55:52;100404.53;;;20.08;57.74
45285;BME280;31026;43.780;25.948;2023-04-06T10:58:20;100395.47;;;20.09;57.49
45285;BME280;31026;43.780;25.948;2023-04-06T11:00:52;100398.16;;;20.09;57.47
45285;BME280;31026;43.780;25.948;2023-04-06T11:03:21;100384.59;;;20.11;57.24
45285;BME280;31026;43.780;25.948;2023-04-06T11:05:50;100383.59;;;20.12;57.13
45285;BME280;31026;43.780;25.948;2023-04-06T11:08:22;100387.59;;;20.08;57.28
45285;BME280;31026;43.780;25.948;2023-04-06T11:11:03;100396.84;;;20.13;57.08
45285;BME280;31026;43.780;25.948;2023-04-06T11:13:36;100376.38;;;20.12;57.82
45285;BME280;31026;43.780;25.948;2023-04-06T11:16:05;100384.91;;;20.08;57.31
45285;BME280;31026;43.780;25.948;2023-04-06T11:18:33;100375.16;;;20.06;57.42
45285;BME280;31026;43.780;25.948;2023-04-06T11:21:02;100385.69;;;20.18;57.32
45285;BME280;31026;43.780;25.948;2023-04-06T11:23:30;100384.53;;;20.20;57.95
45285;BME280;31026;43.780;25.948;2023-04-06T11:26:01;100378.16;;;20.21;57.55
45285;BME280;31026;43.780;25.948;2023-04-06T11:28:30;100399.53;;;20.31;57.43
45285;BME280;31026;43.780;25.948;2023-04-06T11:30:58;100377.91;;;20.15;58.04
45285;BME280;31026;43.780;25.948;2023-04-06T11:33:27;100366.88;;;20.18;58.26
45285;BME280;31026;43.780;25.948;2023-04-06T11:35:56;100371.94;;;20.21;57.90
45285;BME280;31026;43.780;25.948;2023-04-06T11:38:25;100374.47;;;20.22;58.25
45285;BME280;31026;43.780;25.948;2023-04-06T11:40:53;100382.94;;;20.27;57.79
45285;BME280;31026;43.780;25.948;2023-04-06T11:43:28;100367.44;;;20.21;58.09
45285;BME280;31026;43.780;25.948;2023-04-06T11:46:02;100370.47;;;20.26;57.97
45285;BME280;31026;43.780;25.948;2023-04-06T11:48:31;100369.09;;;20.22;57.64
45285;BME280;31026;43.780;25.948;2023-04-06T11:51:01;100369.72;;;20.16;57.83
45285;BME280;31026;43.780;25.948;2023-04-06T11:53:30;100358.97;;;20.16;57.77
45285;BME280;31026;43.780;25.948;2023-04-06T11:55:58;100365.25;;;20.25;57.74
45285;BME280;31026;43.780;25.948;2023-04-06T11:58:29;100368.88;;;20.34;57.81
45285;BME280;31026;43.780;25.948;2023-04-06T12:01:03;100372.09;;;20.37;58.19
45285;BME280;31026;43.780;25.948;2023-04-06T12:03:31;100365.25;;;20.43;57.84
45285;BME280;31026;43.780;25.948;2023-04-06T12:05:59;100362.88;;;20.40;58.35
45285;BME280;31026;43.780;25.948;2023-04-06T12:08:28;100355.13;;;20.37;58.76
45285;BME280;31026;43.780;25.948;2023-04-06T12:10:56;100358.91;;;20.44;58.56
45285;BME280;31026;43.780;25.948;2023-04-06T12:13:25;100364.97;;;20.46;58.83
45285;BME280;31026;43.780;25.948;2023-04-06T12:15:57;100358.91;;;20.44;59.33
45285;BME280;31026;43.780;25.948;2023-04-06T12:18:25;100342.78;;;20.26;59.32
45285;BME280;31026;43.780;25.948;2023-04-06T12:20:53;100342.88;;;20.34;58.84
45285;BME280;31026;43.780;25.948;2023-04-06T12:23:22;100351.47;;;20.38;60.50
45285;BME280;31026;43.780;25.948;2023-04-06T12:25:50;100347.31;;;20.61;59.13
45285;BME280;31026;43.780;25.948;2023-04-06T12:28:19;100352.84;;;20.60;59.31
45285;BME280;31026;43.780;25.948;2023-04-06T12:30:48;100351.28;;;20.57;59.70
45285;BME280;31026;43.780;25.948;2023-04-06T12:33:19;100348.75;;;20.56;59.60
45285;BME280;31026;43.780;25.948;2023-04-06T12:35:47;100330.09;;;20.54;59.30
45285;BME280;31026;43.780;25.948;2023-04-06T12:38:16;100346.75;;;20.58;59.06
45285;BME280;31026;43.780;25.948;2023-04-06T12:40:45;100342.53;;;20.55;59.17
45285;BME280;31026;43.780;25.948;2023-04-06T12:43:14;100322.03;;;20.54;59.26
45285;BME280;31026;43.780;25.948;2023-04-06T12:45:42;100336.78;;;20.50;59.11
45285;BME280;31026;43.780;25.948;2023-04-06T12:48:11;100339.75;;;20.47;59.29
45285;BME280;31026;43.780;25.948;2023-04-06T12:50:42;100334.72;;;20.44;58.84
45285;BME280;31026;43.780;25.948;2023-04-06T12:53:11;100333.72;;;20.45;59.09
45285;BME280;31026;43.780;25.948;2023-04-06T12:55:40;100350.50;;;20.47;59.31